createdAt,value
2022-08-29T00:00:47.314Z,19.52
2022-08-29T00:05:51.193Z,20.66
2022-08-29T00:10:56.846Z,20.41
2022-08-29T00:16:00.587Z,20.76
2022-08-29T00:21:06.282Z,20.15
2022-08-29T00:26:11.201Z,20.95
2022-08-29T00:31:14.924Z,20.80
2022-08-29T00:36:19.075Z,20.38
2022-08-29T00:41:27.579Z,20.00
2022-08-29T00:46:46.330Z,20.47
2022-08-29T00:51:50.289Z,21.06
2022-08-29T00:56:56.318Z,20.31
2022-08-29T01:02:00.609Z,20.22
2022-08-29T01:07:05.694Z,20.20
2022-08-29T01:12:17.927Z,20.49
2022-08-29T01:17:24.880Z,21.04
2022-08-29T01:22:42.510Z,20.90
2022-08-29T01:27:53.963Z,20.30
2022-08-29T01:33:00.923Z,19.76
2022-08-29T01:38:04.717Z,20.63
2022-08-29T01:43:09.780Z,19.47
2022-08-29T01:48:13.465Z,20.19
2022-08-29T01:53:18.458Z,21.10
2022-08-29T01:58:23.606Z,21.61
2022-08-29T02:03:27.585Z,21.94
2022-08-29T02:08:31.526Z,21.59
2022-08-29T02:13:36.692Z,20.52
2022-08-29T02:18:42.510Z,20.28
2022-08-29T02:23:46.751Z,19.83
2022-08-29T02:28:51.984Z,19.60
2022-08-29T02:33:56.296Z,19.52
2022-08-29T02:39:00.399Z,19.70
2022-08-29T02:44:06.150Z,19.65
2022-08-29T02:49:09.897Z,20.21
2022-08-29T02:54:13.874Z,20.20
2022-08-29T02:59:18.999Z,20.15
2022-08-29T03:04:22.811Z,20.25
2022-08-29T03:09:27.006Z,19.98
2022-08-29T03:14:32.201Z,20.07
2022-08-29T03:19:37.426Z,19.60
2022-08-29T03:24:41.311Z,20.17
2022-08-29T03:29:46.434Z,20.47
2022-08-29T03:34:50.344Z,20.48
2022-08-29T03:39:54.638Z,19.99
2022-08-29T03:44:59.832Z,20.00
2022-08-29T03:50:03.713Z,20.15
2022-08-29T03:55:08.625Z,19.67
2022-08-29T04:00:17.229Z,19.82
2022-08-29T04:05:22.031Z,19.92
2022-08-29T04:10:29.031Z,19.98
2022-08-29T04:15:34.797Z,20.10
2022-08-29T04:20:44.959Z,19.84
2022-08-29T04:25:48.812Z,20.01
2022-08-29T04:30:55.118Z,19.77
2022-08-29T04:35:58.983Z,19.84
2022-08-29T04:41:07.040Z,20.16
2022-08-29T04:46:23.535Z,20.55
2022-08-29T04:51:28.639Z,21.04
2022-08-29T04:56:32.427Z,21.36
2022-08-29T05:01:37.534Z,20.47
2022-08-29T05:06:42.102Z,21.12
2022-08-29T05:11:45.944Z,21.83
2022-08-29T05:16:50.956Z,21.48
2022-08-29T05:21:58.011Z,21.14
2022-08-29T05:27:01.901Z,22.04
2022-08-29T05:32:07.200Z,21.89
2022-08-29T05:37:14.800Z,22.08
2022-08-29T05:42:22.081Z,21.60
2022-08-29T05:47:28.089Z,22.26
2022-08-29T05:52:32.219Z,21.34
2022-08-29T05:57:36.033Z,21.29
2022-08-29T06:02:41.595Z,20.82
2022-08-29T06:07:45.934Z,21.41
2022-08-29T06:12:49.698Z,21.20
2022-08-29T06:17:54.842Z,21.08
2022-08-29T06:22:58.782Z,20.94
2022-08-29T06:28:02.825Z,20.24
2022-08-29T06:33:10.838Z,20.51
2022-08-29T06:38:16.207Z,20.30
2022-08-29T06:43:24.233Z,19.87
2022-08-29T06:48:45.395Z,19.56
2022-08-29T06:53:52.543Z,20.13
2022-08-29T06:58:56.458Z,19.73
2022-08-29T07:04:02.427Z,19.79
2022-08-29T07:09:07.547Z,20.08
2022-08-29T07:14:13.328Z,20.53
2022-08-29T07:19:18.435Z,20.43
2022-08-29T07:24:24.970Z,20.11
2022-08-29T07:29:35.673Z,20.74
2022-08-29T07:34:43.616Z,21.57
2022-08-29T07:39:47.484Z,21.46
2022-08-29T07:44:51.125Z,21.38
2022-08-29T07:49:56.860Z,20.40
2022-08-29T07:55:01.186Z,20.50
2022-08-29T08:00:07.843Z,20.07
2022-08-29T08:05:17.701Z,20.25
2022-08-29T08:10:21.521Z,20.09
2022-08-29T08:15:25.243Z,20.36
2022-08-29T08:20:30.340Z,20.41
2022-08-29T08:25:34.316Z,20.31
2022-08-29T08:30:38.220Z,20.28
2022-08-29T08:35:46.794Z,21.12
2022-08-29T08:41:02.258Z,20.44
2022-08-29T08:46:06.127Z,21.16
2022-08-29T08:51:19.333Z,21.00
2022-08-29T08:56:33.239Z,21.55
2022-08-29T09:01:43.370Z,21.51
2022-08-29T09:12:10.352Z,22.99
2022-08-29T09:17:26.445Z,22.27
2022-08-29T09:22:33.241Z,21.32
2022-08-29T09:27:38.441Z,21.16
2022-08-29T09:32:58.546Z,21.55
2022-08-29T09:38:06.524Z,22.37
2022-08-29T09:43:17.159Z,23.25
2022-08-29T09:48:22.373Z,23.69
2022-08-29T09:53:27.521Z,23.68
2022-08-29T09:58:39.784Z,23.30
2022-08-29T10:03:52.918Z,22.94
2022-08-29T10:09:02.634Z,21.76
2022-08-29T10:14:12.584Z,21.37
2022-08-29T10:19:21.560Z,21.53
2022-08-29T10:24:55.607Z,22.87
2022-08-29T10:30:11.257Z,23.14
2022-08-29T10:35:20.011Z,22.41
2022-08-29T10:40:43.384Z,22.25
2022-08-29T10:46:02.488Z,22.51
2022-08-29T10:51:18.061Z,23.26
2022-08-29T10:56:28.661Z,23.61
2022-08-29T11:01:36.937Z,23.80
2022-08-29T11:06:54.441Z,24.91
2022-08-29T11:12:09.184Z,24.99
2022-08-29T11:17:16.405Z,24.22
2022-08-29T11:22:25.313Z,23.56
2022-08-29T11:27:42.821Z,24.19
2022-08-29T11:33:19.206Z,25.25
2022-08-29T11:38:51.320Z,26.15
2022-08-29T11:44:05.622Z,26.34
2022-08-29T11:49:36.570Z,26.66
2022-08-29T11:55:11.891Z,27.24
2022-08-29T12:00:46.508Z,25.96
2022-08-29T12:06:02.553Z,26.99
2022-08-29T12:11:07.758Z,27.40
2022-08-29T12:16:17.301Z,25.96
2022-08-29T12:21:47.761Z,26.59
2022-08-29T12:26:57.530Z,26.02
2022-08-29T12:32:22.575Z,24.71
2022-08-29T12:37:38.710Z,25.14
2022-08-29T12:42:49.348Z,26.12
2022-08-29T12:48:21.754Z,26.74
2022-08-29T12:53:36.919Z,27.88
2022-08-29T12:58:41.999Z,29.24
2022-08-29T13:03:58.406Z,29.79
2022-08-29T13:09:02.382Z,28.79
2022-08-29T13:14:12.310Z,27.90
2022-08-29T13:19:21.662Z,28.93
2022-08-29T13:24:25.459Z,28.62
2022-08-29T13:35:02.488Z,26.30
2022-08-29T13:40:36.730Z,25.23
2022-08-29T13:45:40.823Z,26.82
2022-08-29T13:55:54.826Z,28.24
2022-08-29T14:00:59.639Z,29.65
2022-08-29T14:06:04.763Z,29.32
2022-08-29T14:11:11.326Z,29.01
2022-08-29T14:16:15.716Z,26.82
2022-08-29T14:21:21.017Z,26.71
2022-08-29T14:26:25.630Z,29.35
2022-08-29T14:31:29.462Z,30.15
2022-08-29T14:36:43.478Z,28.66
2022-08-29T14:41:52.012Z,26.22
2022-08-29T14:46:56.288Z,27.28
2022-08-29T14:52:01.439Z,28.27
2022-08-29T14:57:05.605Z,29.33
2022-08-29T15:02:09.994Z,29.70
2022-08-29T15:07:15.596Z,28.30
2022-08-29T15:12:20.504Z,27.39
2022-08-29T15:17:25.235Z,26.66
2022-08-29T15:22:30.332Z,26.83
2022-08-29T15:27:34.119Z,26.54
2022-08-29T15:32:39.209Z,25.91
2022-08-29T15:37:44.477Z,26.96
2022-08-29T15:42:48.279Z,26.18
2022-08-29T15:47:53.885Z,25.28
2022-08-29T15:52:59.155Z,25.09
2022-08-29T15:58:02.670Z,27.57
2022-08-29T16:03:07.920Z,29.29
2022-08-29T16:08:16.566Z,28.39
2022-08-29T16:13:22.496Z,27.64
2022-08-29T16:18:26.209Z,26.72
2022-08-29T16:23:31.330Z,26.43
2022-08-29T16:28:35.708Z,25.93
2022-08-29T16:33:39.852Z,25.54
2022-08-29T16:38:45.176Z,24.76
2022-08-29T16:43:51.906Z,24.65
2022-08-29T16:48:56.130Z,25.00
2022-08-29T16:54:01.612Z,24.52
2022-08-29T16:59:05.356Z,23.95
2022-08-29T17:04:12.423Z,23.80
2022-08-29T17:09:20.000Z,22.49
2022-08-29T17:14:24.954Z,21.74
2022-08-29T17:19:29.079Z,21.69
2022-08-29T17:24:38.457Z,21.63
2022-08-29T17:29:43.131Z,21.35
2022-08-29T17:34:48.071Z,20.97
2022-08-29T17:39:53.281Z,21.66
2022-08-29T17:44:57.878Z,22.18
2022-08-29T17:50:01.605Z,22.26
2022-08-29T17:55:08.491Z,21.53
2022-08-29T18:00:13.591Z,22.65
2022-08-29T18:05:23.538Z,22.42
2022-08-29T18:10:48.932Z,21.86
2022-08-29T18:15:53.792Z,22.27
2022-08-29T18:20:58.597Z,22.29
2022-08-29T18:26:05.619Z,21.79
2022-08-29T18:31:09.658Z,21.69
2022-08-29T18:36:16.166Z,22.29
2022-08-29T18:41:21.483Z,21.46
2022-08-29T18:46:25.289Z,20.80
2022-08-29T18:51:29.647Z,21.74
2022-08-29T18:56:34.863Z,21.71
2022-08-29T19:01:38.608Z,20.97
2022-08-29T19:06:43.364Z,21.57
2022-08-29T19:11:48.788Z,21.61
2022-08-29T19:16:52.614Z,21.44
2022-08-29T19:21:56.311Z,21.92
2022-08-29T19:27:01.615Z,21.98
2022-08-29T19:32:07.360Z,21.25
2022-08-29T19:37:11.589Z,21.60
2022-08-29T19:42:16.948Z,20.68
2022-08-29T19:47:20.650Z,20.49
2022-08-29T19:52:24.404Z,20.43
2022-08-29T19:57:29.961Z,20.93
2022-08-29T20:02:33.736Z,20.50
2022-08-29T20:07:39.517Z,20.61
2022-08-29T20:12:44.925Z,20.36
2022-08-29T20:17:49.911Z,20.30
2022-08-29T20:22:54.482Z,20.38
2022-08-29T20:28:01.280Z,20.27
2022-08-29T20:33:05.449Z,20.18
2022-08-29T20:38:10.723Z,19.85
2022-08-29T20:43:16.186Z,20.19
2022-08-29T20:48:22.921Z,19.74
2022-08-29T20:53:32.404Z,18.35
2022-08-29T20:58:37.950Z,18.81
2022-08-29T21:03:58.888Z,19.04
2022-08-29T21:09:02.627Z,19.39
2022-08-29T21:14:07.736Z,19.09
2022-08-29T21:19:12.765Z,19.03
2022-08-29T21:24:16.554Z,17.89
2022-08-29T21:29:22.026Z,17.61
2022-08-29T21:34:26.208Z,16.99
2022-08-29T21:39:30.534Z,16.50
2022-08-29T21:44:36.346Z,16.97
2022-08-29T21:49:40.119Z,16.66
2022-08-29T21:54:43.879Z,16.12
2022-08-29T21:59:49.270Z,15.48
2022-08-29T22:04:53.217Z,15.26
2022-08-29T22:09:57.067Z,15.74
2022-08-29T22:15:19.538Z,16.49
2022-08-29T22:20:23.369Z,16.27
2022-08-29T22:25:27.022Z,16.66
2022-08-29T22:30:32.834Z,17.21
2022-08-29T22:35:37.454Z,17.34
2022-08-29T22:40:41.411Z,17.38
2022-08-29T22:45:46.751Z,17.37
2022-08-29T22:50:53.964Z,17.58
2022-08-29T22:56:02.448Z,17.10
2022-08-29T23:01:08.144Z,17.47
2022-08-29T23:06:11.824Z,17.49
2022-08-29T23:11:16.369Z,17.74
2022-08-29T23:16:21.958Z,17.16
2022-08-29T23:21:25.901Z,16.12
2022-08-29T23:26:30.084Z,16.91
2022-08-29T23:31:35.217Z,15.86
2022-08-29T23:36:39.090Z,16.63
2022-08-29T23:41:44.687Z,16.11
2022-08-29T23:46:49.891Z,16.19
2022-08-29T23:51:53.749Z,16.34
2022-08-29T23:56:57.530Z,16.54
